METAR EDWI 272050Z AUTO 11003KT 7000 NSC 19/13 Q1017=

Die Wetterinformationen haben nur informativen Charakter
und dürfen nicht zum Zwecke der Flugplanung benutzt werden.

Heute ist
Samstag, 27.05.2017
Sonnenaufgang
05:07 MESZ
Sonnenuntergang
21:41 MESZ

Platzöffnung
09:00 - 19:30 MESZ

StartseiteFlugplatzinfoFirmen & VereineMotorfluggruppe WHV-FRI

Motorfluggruppe Wilhelmshaven-Friesland e.V.

Die Motorfluggruppe Wilhelmshaven-Friesland e.V. ist als gemeinnütziger Verein und Sportgemeinschaft seit Jahrzehnten mit dem JadeWeserAirport verwurzelt. die Förderung des Luftsports, die Sicherheit und Freude am Fliegen sind Grundziele unserer Gemeinschaft und in unseren Vereinsstatuten festgeschrieben. Rundflüge, Inselflüge oder Streckenflüge - unsere Piloten befinden sich auf dem richtigen Weg!

Unsere vereinseigene Flugschule bietet Pilotenanwärtern die Möglichkeit, die Motorfluglizenz nach den Richtlinien der JAR-FCL zu erwerben. Auch die Ausbildung zur Nachtflug- und CVFR-Berechtigung wird durch unsere ehrenamtlich tätigen Fluglehrer auf den clubeigenen Flugzeugen durchgeführt. Gemeinsame Clubausflüge und Aktivitäten ebenso wie Kameradschaft und Geselligkeit gehören zur Tagesordnung unseres Vereins.

Die Motorfluggruppe Wilhelmshaven-Friesland e.V.

eine starke Gemeinschaft !

Über einen Besuch unserer  Homepage würden wir uns freuen. Dort erfahren Sie mehr über die Vereinsarbeit und unsere Angebote.

Go to top